sensor_id;sensor_type;location;lat;lon;timestamp;temperature;humidity
70534;SHT31;58088;51.186;17.130;2022-10-22T00:02:16;12.28;77.21
70534;SHT31;58088;51.186;17.130;2022-10-22T00:04:45;12.29;77.26
70534;SHT31;58088;51.186;17.130;2022-10-22T00:07:14;12.29;77.21
70534;SHT31;58088;51.186;17.130;2022-10-22T00:09:42;12.31;77.09
70534;SHT31;58088;51.186;17.130;2022-10-22T00:12:09;12.32;77.01
70534;SHT31;58088;51.186;17.130;2022-10-22T00:14:36;12.33;77.00
70534;SHT31;58088;51.186;17.130;2022-10-22T00:17:03;12.31;77.00
70534;SHT31;58088;51.186;17.130;2022-10-22T00:19:30;12.31;76.97
70534;SHT31;58088;51.186;17.130;2022-10-22T00:21:56;12.29;76.90
70534;SHT31;58088;51.186;17.130;2022-10-22T00:24:23;12.29;76.88
70534;SHT31;58088;51.186;17.130;2022-10-22T00:26:51;12.30;76.90
70534;SHT31;58088;51.186;17.130;2022-10-22T00:29:17;12.27;77.00
70534;SHT31;58088;51.186;17.130;2022-10-22T00:31:44;12.20;76.95
70534;SHT31;58088;51.186;17.130;2022-10-22T00:34:15;12.11;77.00
70534;SHT31;58088;51.186;17.130;2022-10-22T00:36:43;12.06;77.14
70534;SHT31;58088;51.186;17.130;2022-10-22T00:39:09;12.06;77.14
70534;SHT31;58088;51.186;17.130;2022-10-22T00:41:37;12.07;77.10
70534;SHT31;58088;51.186;17.130;2022-10-22T00:44:04;12.11;77.06
70534;SHT31;58088;51.186;17.130;2022-10-22T00:46:31;12.13;76.99
70534;SHT31;58088;51.186;17.130;2022-10-22T00:48:58;12.15;76.96
70534;SHT31;58088;51.186;17.130;2022-10-22T00:51:29;12.18;76.82
70534;SHT31;58088;51.186;17.130;2022-10-22T00:54:03;12.19;76.84
70534;SHT31;58088;51.186;17.130;2022-10-22T00:56:33;12.16;76.86
70534;SHT31;58088;51.186;17.130;2022-10-22T00:58:59;12.15;76.79
70534;SHT31;58088;51.186;17.130;2022-10-22T01:01:29;12.13;76.75
70534;SHT31;58088;51.186;17.130;2022-10-22T01:03:56;12.10;76.83
70534;SHT31;58088;51.186;17.130;2022-10-22T01:06:28;12.07;76.82
70534;SHT31;58088;51.186;17.130;2022-10-22T01:11:53;11.96;76.62
70534;SHT31;58088;51.186;17.130;2022-10-22T01:14:35;11.95;76.60
70534;SHT31;58088;51.186;17.130;2022-10-22T01:25:34;11.89;76.64
70534;SHT31;58088;51.186;17.130;2022-10-22T01:31:23;11.89;76.74
70534;SHT31;58088;51.186;17.130;2022-10-22T01:33:55;11.90;76.90
70534;SHT31;58088;51.186;17.130;2022-10-22T01:36:26;11.93;77.00
70534;SHT31;58088;51.186;17.130;2022-10-22T01:38:56;11.93;76.94
70534;SHT31;58088;51.186;17.130;2022-10-22T01:41:27;11.92;76.74
70534;SHT31;58088;51.186;17.130;2022-10-22T01:43:54;11.92;76.70
70534;SHT31;58088;51.186;17.130;2022-10-22T01:46:21;11.94;76.72
70534;SHT31;58088;51.186;17.130;2022-10-22T01:51:52;11.96;76.91
70534;SHT31;58088;51.186;17.130;2022-10-22T01:54:46;11.99;76.81
70534;SHT31;58088;51.186;17.130;2022-10-22T01:57:48;11.98;76.79
70534;SHT31;58088;51.186;17.130;2022-10-22T02:00:29;11.95;76.68
70534;SHT31;58088;51.186;17.130;2022-10-22T02:03:00;11.92;76.60
70534;SHT31;58088;51.186;17.130;2022-10-22T02:05:38;11.91;76.62
70534;SHT31;58088;51.186;17.130;2022-10-22T02:08:19;11.91;76.69
70534;SHT31;58088;51.186;17.130;2022-10-22T02:10:49;11.89;76.60
70534;SHT31;58088;51.186;17.130;2022-10-22T02:13:23;11.89;76.51
70534;SHT31;58088;51.186;17.130;2022-10-22T02:15:54;11.85;76.41
70534;SHT31;58088;51.186;17.130;2022-10-22T02:18:23;11.81;76.32
70534;SHT31;58088;51.186;17.130;2022-10-22T02:20:55;11.74;76.29
70534;SHT31;58088;51.186;17.130;2022-10-22T02:23:23;11.70;76.28
70534;SHT31;58088;51.186;17.130;2022-10-22T02:25:53;11.66;76.29
70534;SHT31;58088;51.186;17.130;2022-10-22T02:28:31;11.61;76.43
70534;SHT31;58088;51.186;17.130;2022-10-22T02:31:42;11.58;76.40
70534;SHT31;58088;51.186;17.130;2022-10-22T02:34:04;11.55;76.40
70534;SHT31;58088;51.186;17.130;2022-10-22T02:36:54;11.52;76.33
70534;SHT31;58088;51.186;17.130;2022-10-22T02:39:23;11.52;76.38
70534;SHT31;58088;51.186;17.130;2022-10-22T02:41:51;11.52;76.43
70534;SHT31;58088;51.186;17.130;2022-10-22T02:44:19;11.55;76.42
70534;SHT31;58088;51.186;17.130;2022-10-22T02:46:47;11.53;76.44
70534;SHT31;58088;51.186;17.130;2022-10-22T02:49:14;11.54;76.41
70534;SHT31;58088;51.186;17.130;2022-10-22T02:51:40;11.55;76.46
70534;SHT31;58088;51.186;17.130;2022-10-22T02:54:06;11.54;76.60
70534;SHT31;58088;51.186;17.130;2022-10-22T02:56:32;11.52;76.66
70534;SHT31;58088;51.186;17.130;2022-10-22T02:58:59;11.49;76.70
70534;SHT31;58088;51.186;17.130;2022-10-22T03:01:25;11.45;76.79
70534;SHT31;58088;51.186;17.130;2022-10-22T03:03:51;11.42;76.90
70534;SHT31;58088;51.186;17.130;2022-10-22T03:09:03;11.43;76.91
70534;SHT31;58088;51.186;17.130;2022-10-22T03:11:30;11.40;76.98
70534;SHT31;58088;51.186;17.130;2022-10-22T03:13:56;11.44;76.83
70534;SHT31;58088;51.186;17.130;2022-10-22T03:16:42;11.47;76.66
70534;SHT31;58088;51.186;17.130;2022-10-22T03:19:08;11.49;76.60
70534;SHT31;58088;51.186;17.130;2022-10-22T03:21:39;11.48;76.60
70534;SHT31;58088;51.186;17.130;2022-10-22T03:24:23;11.47;76.60
70534;SHT31;58088;51.186;17.130;2022-10-22T03:26:54;11.46;76.58
70534;SHT31;58088;51.186;17.130;2022-10-22T03:29:23;11.45;76.54
70534;SHT31;58088;51.186;17.130;2022-10-22T03:31:52;11.49;76.46
70534;SHT31;58088;51.186;17.130;2022-10-22T03:34:20;11.51;76.36
70534;SHT31;58088;51.186;17.130;2022-10-22T03:36:46;11.52;76.30
70534;SHT31;58088;51.186;17.130;2022-10-22T03:39:14;11.45;76.30
70534;SHT31;58088;51.186;17.130;2022-10-22T03:41:44;11.40;76.37
70534;SHT31;58088;51.186;17.130;2022-10-22T03:44:14;11.33;76.52
70534;SHT31;58088;51.186;17.130;2022-10-22T03:46:43;11.29;76.67
70534;SHT31;58088;51.186;17.130;2022-10-22T03:49:09;11.29;76.70
70534;SHT31;58088;51.186;17.130;2022-10-22T03:51:35;11.26;76.70
70534;SHT31;58088;51.186;17.130;2022-10-22T03:54:02;11.21;76.76
70534;SHT31;58088;51.186;17.130;2022-10-22T03:56:29;11.16;76.83
70534;SHT31;58088;51.186;17.130;2022-10-22T03:58:56;11.12;76.96
70534;SHT31;58088;51.186;17.130;2022-10-22T04:01:25;11.10;77.13
70534;SHT31;58088;51.186;17.130;2022-10-22T04:03:54;11.10;77.25
70534;SHT31;58088;51.186;17.130;2022-10-22T04:06:20;11.11;77.35
70534;SHT31;58088;51.186;17.130;2022-10-22T04:08:47;11.10;77.49
70534;SHT31;58088;51.186;17.130;2022-10-22T04:11:14;11.10;77.57
70534;SHT31;58088;51.186;17.130;2022-10-22T04:13:41;11.11;77.62
70534;SHT31;58088;51.186;17.130;2022-10-22T04:16:28;11.13;77.70
70534;SHT31;58088;51.186;17.130;2022-10-22T04:18:56;11.14;77.85
70534;SHT31;58088;51.186;17.130;2022-10-22T04:21:23;11.14;77.90
70534;SHT31;58088;51.186;17.130;2022-10-22T04:23:50;11.13;77.91
70534;SHT31;58088;51.186;17.130;2022-10-22T04:26:18;11.15;77.88
70534;SHT31;58088;51.186;17.130;2022-10-22T04:28:45;11.16;77.88
70534;SHT31;58088;51.186;17.130;2022-10-22T04:31:15;11.18;77.87
70534;SHT31;58088;51.186;17.130;2022-10-22T04:33:45;11.21;77.80
70534;SHT31;58088;51.186;17.130;2022-10-22T04:36:16;11.22;77.77
70534;SHT31;58088;51.186;17.130;2022-10-22T04:38:44;11.26;77.71
70534;SHT31;58088;51.186;17.130;2022-10-22T04:41:16;11.27;77.69
70534;SHT31;58088;51.186;17.130;2022-10-22T04:43:46;11.30;77.60
70534;SHT31;58088;51.186;17.130;2022-10-22T04:46:13;11.32;77.50
70534;SHT31;58088;51.186;17.130;2022-10-22T04:48:41;11.31;77.49
70534;SHT31;58088;51.186;17.130;2022-10-22T04:51:10;11.34;77.50
70534;SHT31;58088;51.186;17.130;2022-10-22T04:53:40;11.37;77.56
70534;SHT31;58088;51.186;17.130;2022-10-22T04:56:07;11.40;77.60
70534;SHT31;58088;51.186;17.130;2022-10-22T04:58:35;11.38;77.57
70534;SHT31;58088;51.186;17.130;2022-10-22T05:01:09;11.36;77.68
70534;SHT31;58088;51.186;17.130;2022-10-22T05:03:45;11.35;77.93
70534;SHT31;58088;51.186;17.130;2022-10-22T05:06:13;11.37;78.05
70534;SHT31;58088;51.186;17.130;2022-10-22T05:08:40;11.38;78.16
70534;SHT31;58088;51.186;17.130;2022-10-22T05:11:14;11.39;78.23
70534;SHT31;58088;51.186;17.130;2022-10-22T05:13:44;11.43;78.13
70534;SHT31;58088;51.186;17.130;2022-10-22T05:16:11;11.45;78.00
70534;SHT31;58088;51.186;17.130;2022-10-22T05:18:39;11.49;78.06
70534;SHT31;58088;51.186;17.130;2022-10-22T05:21:12;11.51;78.03
70534;SHT31;58088;51.186;17.130;2022-10-22T05:23:42;11.51;78.03
70534;SHT31;58088;51.186;17.130;2022-10-22T05:26:11;11.55;78.01
70534;SHT31;58088;51.186;17.130;2022-10-22T05:28:40;11.58;78.05
70534;SHT31;58088;51.186;17.130;2022-10-22T05:31:07;11.60;77.92
70534;SHT31;58088;51.186;17.130;2022-10-22T05:33:36;11.60;77.87
70534;SHT31;58088;51.186;17.130;2022-10-22T05:36:04;11.60;77.89
70534;SHT31;58088;51.186;17.130;2022-10-22T05:38:32;11.60;77.74
70534;SHT31;58088;51.186;17.130;2022-10-22T05:41:03;11.61;77.71
70534;SHT31;58088;51.186;17.130;2022-10-22T05:43:33;11.66;77.67
70534;SHT31;58088;51.186;17.130;2022-10-22T05:46:07;11.70;77.59
70534;SHT31;58088;51.186;17.130;2022-10-22T05:48:39;11.74;77.52
70534;SHT31;58088;51.186;17.130;2022-10-22T05:51:07;11.75;77.56
70534;SHT31;58088;51.186;17.130;2022-10-22T05:53:37;11.75;77.69
70534;SHT31;58088;51.186;17.130;2022-10-22T05:56:26;11.76;77.85
70534;SHT31;58088;51.186;17.130;2022-10-22T05:58:54;11.76;77.99
70534;SHT31;58088;51.186;17.130;2022-10-22T06:01:22;11.77;78.08
70534;SHT31;58088;51.186;17.130;2022-10-22T06:03:58;11.76;78.08
70534;SHT31;58088;51.186;17.130;2022-10-22T06:09:16;11.80;78.10
70534;SHT31;58088;51.186;17.130;2022-10-22T06:11:49;11.84;78.06
70534;SHT31;58088;51.186;17.130;2022-10-22T06:14:16;11.89;78.03
70534;SHT31;58088;51.186;17.130;2022-10-22T06:16:47;11.94;77.95
70534;SHT31;58088;51.186;17.130;2022-10-22T06:19:15;11.97;77.94
70534;SHT31;58088;51.186;17.130;2022-10-22T06:21:44;12.01;77.99
70534;SHT31;58088;51.186;17.130;2022-10-22T06:24:11;12.07;77.98
70534;SHT31;58088;51.186;17.130;2022-10-22T06:26:38;12.09;77.99
70534;SHT31;58088;51.186;17.130;2022-10-22T06:29:06;12.13;77.96
70534;SHT31;58088;51.186;17.130;2022-10-22T06:31:33;12.18;77.90
70534;SHT31;58088;51.186;17.130;2022-10-22T06:36:49;12.27;77.72
70534;SHT31;58088;51.186;17.130;2022-10-22T06:39:16;12.30;77.67
70534;SHT31;58088;51.186;17.130;2022-10-22T06:41:42;12.29;77.66
70534;SHT31;58088;51.186;17.130;2022-10-22T06:44:15;12.32;77.54
70534;SHT31;58088;51.186;17.130;2022-10-22T06:46:44;12.35;77.50
70534;SHT31;58088;51.186;17.130;2022-10-22T06:49:14;12.38;77.47
70534;SHT31;58088;51.186;17.130;2022-10-22T06:51:41;12.39;77.51
70534;SHT31;58088;51.186;17.130;2022-10-22T06:54:08;12.40;77.50
70534;SHT31;58088;51.186;17.130;2022-10-22T06:56:35;12.42;77.48
70534;SHT31;58088;51.186;17.130;2022-10-22T06:59:02;12.41;77.41
70534;SHT31;58088;51.186;17.130;2022-10-22T07:01:29;12.41;77.36
70534;SHT31;58088;51.186;17.130;2022-10-22T19:01:08;14.62;90.25
70534;SHT31;58088;51.186;17.130;2022-10-22T19:03:49;14.58;89.95
70534;SHT31;58088;51.186;17.130;2022-10-22T19:06:17;14.58;89.74
70534;SHT31;58088;51.186;17.130;2022-10-22T19:08:54;14.59;89.51
70534;SHT31;58088;51.186;17.130;2022-10-22T19:11:21;14.60;89.31
70534;SHT31;58088;51.186;17.130;2022-10-22T19:13:47;14.60;89.09
70534;SHT31;58088;51.186;17.130;2022-10-22T19:16:17;14.60;88.93
70534;SHT31;58088;51.186;17.130;2022-10-22T19:18:52;14.60;88.81
70534;SHT31;58088;51.186;17.130;2022-10-22T19:21:27;14.61;88.67
70534;SHT31;58088;51.186;17.130;2022-10-22T19:23:55;14.63;88.52
70534;SHT31;58088;51.186;17.130;2022-10-22T19:26:26;14.62;88.40
70534;SHT31;58088;51.186;17.130;2022-10-22T19:28:54;14.63;88.31
70534;SHT31;58088;51.186;17.130;2022-10-22T19:31:23;14.65;88.18
70534;SHT31;58088;51.186;17.130;2022-10-22T19:33:52;14.66;88.04
70534;SHT31;58088;51.186;17.130;2022-10-22T19:36:21;14.68;87.90
70534;SHT31;58088;51.186;17.130;2022-10-22T19:38:49;14.68;87.77
70534;SHT31;58088;51.186;17.130;2022-10-22T19:41:17;14.66;87.62
70534;SHT31;58088;51.186;17.130;2022-10-22T19:43:47;14.66;87.52
70534;SHT31;58088;51.186;17.130;2022-10-22T19:46:17;14.65;87.43
70534;SHT31;58088;51.186;17.130;2022-10-22T19:48:43;14.66;87.33
70534;SHT31;58088;51.186;17.130;2022-10-22T19:51:13;14.68;87.24
70534;SHT31;58088;51.186;17.130;2022-10-22T19:53:44;14.67;87.15
70534;SHT31;58088;51.186;17.130;2022-10-22T19:56:11;14.66;87.08
70534;SHT31;58088;51.186;17.130;2022-10-22T19:58:45;14.65;86.99
70534;SHT31;58088;51.186;17.130;2022-10-22T20:01:12;14.64;86.92
70534;SHT31;58088;51.186;17.130;2022-10-22T20:03:41;14.63;86.80
70534;SHT31;58088;51.186;17.130;2022-10-22T20:06:09;14.61;86.72
70534;SHT31;58088;51.186;17.130;2022-10-22T20:08:38;14.63;86.64
70534;SHT31;58088;51.186;17.130;2022-10-22T20:11:05;14.62;86.52
70534;SHT31;58088;51.186;17.130;2022-10-22T20:13:40;14.63;86.36
70534;SHT31;58088;51.186;17.130;2022-10-22T20:16:06;14.63;86.21
70534;SHT31;58088;51.186;17.130;2022-10-22T20:18:33;14.61;86.08
70534;SHT31;58088;51.186;17.130;2022-10-22T20:21:06;14.58;85.98
70534;SHT31;58088;51.186;17.130;2022-10-22T20:23:37;14.54;85.90
70534;SHT31;58088;51.186;17.130;2022-10-22T20:26:03;14.53;85.94
70534;SHT31;58088;51.186;17.130;2022-10-22T20:28:33;14.53;85.94
70534;SHT31;58088;51.186;17.130;2022-10-22T20:31:10;14.49;85.83
70534;SHT31;58088;51.186;17.130;2022-10-22T20:33:39;14.48;85.75
70534;SHT31;58088;51.186;17.130;2022-10-22T20:36:06;14.50;85.67
70534;SHT31;58088;51.186;17.130;2022-10-22T20:38:38;14.49;85.61
70534;SHT31;58088;51.186;17.130;2022-10-22T20:41:05;14.43;85.61
70534;SHT31;58088;51.186;17.130;2022-10-22T20:43:36;14.38;85.67
70534;SHT31;58088;51.186;17.130;2022-10-22T20:46:02;14.39;85.70
70534;SHT31;58088;51.186;17.130;2022-10-22T20:48:29;14.41;85.64
70534;SHT31;58088;51.186;17.130;2022-10-22T20:50:57;14.39;85.56
70534;SHT31;58088;51.186;17.130;2022-10-22T20:53:25;14.37;85.47
70534;SHT31;58088;51.186;17.130;2022-10-22T20:55:53;14.34;85.41
70534;SHT31;58088;51.186;17.130;2022-10-22T20:58:23;14.33;85.34
70534;SHT31;58088;51.186;17.130;2022-10-22T21:00:51;14.28;85.25
70534;SHT31;58088;51.186;17.130;2022-10-22T21:03:17;14.26;85.20
70534;SHT31;58088;51.186;17.130;2022-10-22T21:05:43;14.21;85.20
70534;SHT31;58088;51.186;17.130;2022-10-22T21:08:09;14.21;85.19
70534;SHT31;58088;51.186;17.130;2022-10-22T21:10:44;14.19;85.13
70534;SHT31;58088;51.186;17.130;2022-10-22T21:13:14;14.15;85.13
70534;SHT31;58088;51.186;17.130;2022-10-22T21:15:41;14.14;85.17
70534;SHT31;58088;51.186;17.130;2022-10-22T21:18:07;14.13;85.13
70534;SHT31;58088;51.186;17.130;2022-10-22T21:20:33;14.11;85.11
70534;SHT31;58088;51.186;17.130;2022-10-22T21:23:00;14.09;85.09
70534;SHT31;58088;51.186;17.130;2022-10-22T21:25:27;14.10;85.02
70534;SHT31;58088;51.186;17.130;2022-10-22T21:27:53;14.10;84.94
70534;SHT31;58088;51.186;17.130;2022-10-22T21:30:19;14.11;84.83
70534;SHT31;58088;51.186;17.130;2022-10-22T21:32:45;14.10;84.74
70534;SHT31;58088;51.186;17.130;2022-10-22T21:35:11;14.09;84.57
70534;SHT31;58088;51.186;17.130;2022-10-22T21:37:37;14.06;84.47
70534;SHT31;58088;51.186;17.130;2022-10-22T21:40:03;14.05;84.34
70534;SHT31;58088;51.186;17.130;2022-10-22T21:42:31;14.04;84.27
70534;SHT31;58088;51.186;17.130;2022-10-22T21:44:57;14.03;84.16
70534;SHT31;58088;51.186;17.130;2022-10-22T21:47:23;13.95;84.03
70534;SHT31;58088;51.186;17.130;2022-10-22T21:49:49;13.88;84.09
70534;SHT31;58088;51.186;17.130;2022-10-22T21:52:15;13.84;84.15
70534;SHT31;58088;51.186;17.130;2022-10-22T21:54:41;13.79;84.23
70534;SHT31;58088;51.186;17.130;2022-10-22T21:57:07;13.75;84.30
70534;SHT31;58088;51.186;17.130;2022-10-22T21:59:34;13.69;84.38
70534;SHT31;58088;51.186;17.130;2022-10-22T22:02:01;13.68;84.49
70534;SHT31;58088;51.186;17.130;2022-10-22T22:04:29;13.66;84.50
70534;SHT31;58088;51.186;17.130;2022-10-22T22:06:55;13.63;84.52
70534;SHT31;58088;51.186;17.130;2022-10-22T22:09:21;13.60;84.53
70534;SHT31;58088;51.186;17.130;2022-10-22T22:11:48;13.59;84.51
70534;SHT31;58088;51.186;17.130;2022-10-22T22:14:14;13.57;84.59
70534;SHT31;58088;51.186;17.130;2022-10-22T22:16:40;13.56;84.60
70534;SHT31;58088;51.186;17.130;2022-10-22T22:19:08;13.56;84.57
70534;SHT31;58088;51.186;17.130;2022-10-22T22:21:35;13.53;84.50
70534;SHT31;58088;51.186;17.130;2022-10-22T22:24:07;13.51;84.43
70534;SHT31;58088;51.186;17.130;2022-10-22T22:26:37;13.48;84.37
70534;SHT31;58088;51.186;17.130;2022-10-22T22:29:04;13.45;84.33
70534;SHT31;58088;51.186;17.130;2022-10-22T22:31:31;13.42;84.24
70534;SHT31;58088;51.186;17.130;2022-10-22T22:34:00;13.41;84.22
70534;SHT31;58088;51.186;17.130;2022-10-22T22:36:36;13.38;84.17
70534;SHT31;58088;51.186;17.130;2022-10-22T22:39:06;13.34;84.10
70534;SHT31;58088;51.186;17.130;2022-10-22T22:41:36;13.32;84.01
70534;SHT31;58088;51.186;17.130;2022-10-22T22:44:02;13.29;83.93
70534;SHT31;58088;51.186;17.130;2022-10-22T22:46:29;13.25;83.88
70534;SHT31;58088;51.186;17.130;2022-10-22T22:48:55;13.22;83.77
70534;SHT31;58088;51.186;17.130;2022-10-22T22:51:21;13.17;83.73
70534;SHT31;58088;51.186;17.130;2022-10-22T22:53:47;13.12;83.74
70534;SHT31;58088;51.186;17.130;2022-10-22T22:58:41;13.07;83.70
70534;SHT31;58088;51.186;17.130;2022-10-22T23:01:09;13.03;83.61
70534;SHT31;58088;51.186;17.130;2022-10-22T23:03:43;12.97;83.68
70534;SHT31;58088;51.186;17.130;2022-10-22T23:06:13;12.92;83.74
70534;SHT31;58088;51.186;17.130;2022-10-22T23:08:40;12.90;83.80
70534;SHT31;58088;51.186;17.130;2022-10-22T23:11:09;12.88;83.81
70534;SHT31;58088;51.186;17.130;2022-10-22T23:13:38;12.87;83.80
70534;SHT31;58088;51.186;17.130;2022-10-22T23:16:07;12.85;83.82
70534;SHT31;58088;51.186;17.130;2022-10-22T23:18:43;12.84;83.84
70534;SHT31;58088;51.186;17.130;2022-10-22T23:21:14;12.83;83.82
70534;SHT31;58088;51.186;17.130;2022-10-22T23:23:45;12.84;83.81
70534;SHT31;58088;51.186;17.130;2022-10-22T23:26:14;12.80;83.82
70534;SHT31;58088;51.186;17.130;2022-10-22T23:28:44;12.80;83.90
70534;SHT31;58088;51.186;17.130;2022-10-22T23:31:11;12.79;83.90
70534;SHT31;58088;51.186;17.130;2022-10-22T23:33:40;12.81;83.90
70534;SHT31;58088;51.186;17.130;2022-10-22T23:36:07;12.83;83.83
70534;SHT31;58088;51.186;17.130;2022-10-22T23:38:35;12.84;83.72
70534;SHT31;58088;51.186;17.130;2022-10-22T23:41:03;12.84;83.56
70534;SHT31;58088;51.186;17.130;2022-10-22T23:43:30;12.81;83.44
70534;SHT31;58088;51.186;17.130;2022-10-22T23:46:01;12.78;83.29
70534;SHT31;58088;51.186;17.130;2022-10-22T23:48:31;12.74;83.20
70534;SHT31;58088;51.186;17.130;2022-10-22T23:53:33;12.71;83.18
70534;SHT31;58088;51.186;17.130;2022-10-22T23:56:02;12.70;83.14
70534;SHT31;58088;51.186;17.130;2022-10-22T23:58:31;12.70;83.06
